Time;durP1;ratioP1;P1;durP2;ratioP2;P2;SDS_P1;SDS_P2;PMS_P1;PMS_P2;Temp;Humidity;BMP_temperature;BMP_pressure;BME280_temperature;BME280_humidity;BME280_pressure;Samples;Min_cycle;Max_cycle;Signal;HPM_P1;HPM_P2
2022/01/10 00:00:22;;;;;;;13.77;6.05;;;;;;;1.02;100.00;97997.94;5005405;28;20037;-66
2022/01/10 00:02:52;;;;;;;8.50;5.00;;;;;;;1.11;100.00;98011.81;5005244;28;20094;-66
2022/01/10 00:05:17;;;;;;;16.40;6.20;;;;;;;1.14;100.00;98011.84;5005280;28;20029;-66
2022/01/10 00:07:43;;;;;;;12.25;5.35;;;;;;;1.11;100.00;98016.16;5005313;28;20083;-66
2022/01/10 00:10:10;;;;;;;13.52;4.93;;;;;;;1.12;100.00;98017.88;5005299;28;20229;-66
2022/01/10 00:12:36;;;;;;;10.43;4.93;;;;;;;1.09;100.00;98023.03;5005239;28;20026;-66
2022/01/10 00:15:03;;;;;;;7.60;3.47;;;;;;;1.11;100.00;98021.34;5005202;28;20030;-66
2022/01/10 00:17:28;;;;;;;6.28;3.58;;;;;;;1.20;100.00;98021.41;5005092;28;20022;-66
2022/01/10 00:19:53;;;;;;;7.88;4.00;;;;;;;1.17;100.00;98026.56;5004681;28;20037;-66
2022/01/10 00:22:20;;;;;;;8.43;4.93;;;;;;;0.99;100.00;98026.41;5005027;28;20068;-66
2022/01/10 00:24:45;;;;;;;10.63;4.80;;;;;;;0.89;100.00;98025.47;5005173;28;20322;-66
2022/01/10 00:27:11;;;;;;;9.77;4.78;;;;;;;0.95;100.00;98029.84;5004859;28;20050;-66
2022/01/10 00:29:36;;;;;;;8.15;4.47;;;;;;;0.93;100.00;98037.59;5004919;28;20041;-66
2022/01/10 00:32:02;;;;;;;7.75;4.40;;;;;;;0.79;100.00;98038.34;5004862;28;20030;-66
2022/01/10 00:34:28;;;;;;;11.93;5.95;;;;;;;0.82;100.00;98043.56;5004873;28;20108;-66
2022/01/10 00:36:53;;;;;;;7.57;4.32;;;;;;;0.81;100.00;98036.59;5004847;28;20341;-66
2022/01/10 00:39:19;;;;;;;8.70;4.00;;;;;;;0.92;100.00;98047.94;5004793;28;20034;-66
2022/01/10 00:41:45;;;;;;;11.10;5.20;;;;;;;0.90;100.00;98047.94;5004751;28;20385;-66
2022/01/10 00:44:12;;;;;;;8.52;4.28;;;;;;;1.00;100.00;98054.06;5004892;28;20034;-66
2022/01/10 00:46:37;;;;;;;9.88;4.10;;;;;;;1.03;100.00;98059.25;5004688;28;20030;-66
2022/01/10 00:49:03;;;;;;;8.13;3.92;;;;;;;1.10;100.00;98056.75;5004646;28;20089;-66
2022/01/10 00:51:29;;;;;;;12.70;5.30;;;;;;;1.05;100.00;98057.56;5004614;28;20030;-66
2022/01/10 00:53:54;;;;;;;9.38;4.55;;;;;;;0.94;100.00;98054.00;5004578;28;20026;-66
2022/01/10 00:56:20;;;;;;;14.38;4.20;;;;;;;0.90;100.00;98071.25;5004773;28;20026;-66
2022/01/10 00:58:46;;;;;;;16.00;4.55;;;;;;;0.84;100.00;98067.72;5004775;28;20025;-66
2022/01/10 01:01:12;;;;;;;21.40;4.32;;;;;;;0.80;100.00;98076.31;5004788;28;20081;-66
2022/01/10 01:03:38;;;;;;;11.20;4.40;;;;;;;0.84;100.00;98075.50;5004386;28;20037;-66
2022/01/10 01:06:03;;;;;;;7.65;3.97;;;;;;;0.84;100.00;98073.78;5004702;28;20329;-66
2022/01/10 01:08:32;;;;;;;8.20;4.10;;;;;;;0.92;100.00;98076.44;5004446;28;20199;-65
2022/01/10 01:13:38;;;;;;;8.70;3.30;;;;;;;0.97;100.00;98085.13;5004755;28;20061;-65
2022/01/10 01:26:49;;;;;;;5.00;2.97;;;;;;;0.80;100.00;98107.41;4944439;29;20074;-65
2022/01/10 01:29:20;;;;;;;7.10;3.33;;;;;;;0.79;100.00;98105.69;4944576;29;20058;-65
2022/01/10 01:31:46;;;;;;;13.40;3.85;;;;;;;0.61;100.00;98113.25;4947607;29;20035;-65
2022/01/10 01:34:14;;;;;;;8.20;2.88;;;;;;;0.53;100.00;98104.53;4948447;29;20139;-65
2022/01/10 01:36:40;;;;;;;5.03;2.85;;;;;;;0.52;100.00;98116.59;4948461;29;20039;-66
2022/01/10 01:39:17;;;;;;;6.68;3.13;;;;;;;0.53;100.00;98120.06;4948364;29;20083;-66
2022/01/10 01:41:43;;;;;;;8.68;3.85;;;;;;;0.52;100.00;98123.50;4948336;29;20386;-66
2022/01/10 01:44:09;;;;;;;7.80;4.30;;;;;;;0.55;100.00;98136.47;4948167;29;20134;-66
2022/01/10 01:46:35;;;;;;;5.95;3.53;;;;;;;0.51;100.00;98134.72;4948229;29;20031;-66
2022/01/10 01:49:02;;;;;;;17.73;3.75;;;;;;;0.51;100.00;98139.88;4948120;29;20043;-66
2022/01/10 01:51:28;;;;;;;4.20;2.33;;;;;;;0.44;100.00;98144.09;4948044;29;20031;-66
2022/01/10 01:53:53;;;;;;;6.32;3.28;;;;;;;0.53;100.00;98143.38;4948020;29;20382;-66
2022/01/10 01:56:20;;;;;;;7.10;2.10;;;;;;;0.46;100.00;98146.72;4947997;29;20434;-66
2022/01/10 01:58:46;;;;;;;5.30;3.13;;;;;;;0.56;100.00;98148.56;4948003;29;20099;-66
2022/01/10 02:01:17;;;;;;;19.15;3.45;;;;;;;0.49;100.00;98152.81;4989966;28;20037;-66
2022/01/10 02:03:43;;;;;;;7.03;2.97;;;;;;;0.52;100.00;98151.97;5007580;28;20034;-66
2022/01/10 02:06:09;;;;;;;4.88;2.72;;;;;;;0.37;100.00;98156.94;5007611;28;20026;-66
2022/01/10 02:08:35;;;;;;;4.47;2.60;;;;;;;0.41;100.00;98156.16;5007576;28;20049;-66
2022/01/10 02:11:09;;;;;;;10.40;2.88;;;;;;;0.50;100.00;98164.88;5007496;28;20085;-66
2022/01/10 02:13:35;;;;;;;4.75;2.90;;;;;;;0.57;100.00;98174.47;5007432;28;20335;-66
2022/01/10 02:16:01;;;;;;;4.75;2.30;;;;;;;0.62;100.00;98174.53;5007425;28;20027;-66
2022/01/10 02:18:27;;;;;;;4.75;2.65;;;;;;;0.65;100.00;98182.31;5007290;28;20030;-66
2022/01/10 02:20:54;;;;;;;4.63;2.20;;;;;;;0.60;100.00;98191.78;5007299;28;20037;-66
2022/01/10 02:23:19;;;;;;;17.25;2.90;;;;;;;0.59;100.00;98184.84;5007180;28;20038;-66
2022/01/10 02:25:46;;;;;;;6.57;3.00;;;;;;;0.61;100.00;98185.75;5007007;28;20038;-66
2022/01/10 02:28:12;;;;;;;8.88;3.10;;;;;;;0.60;100.00;98186.59;5007268;28;20073;-66
2022/01/10 02:30:39;;;;;;;12.13;2.92;;;;;;;0.43;100.00;98185.50;5007108;28;20317;-66
2022/01/10 02:33:05;;;;;;;5.22;2.60;;;;;;;0.47;100.00;98184.72;5007087;28;20033;-66
2022/01/10 02:35:51;;;;;;;5.07;2.40;;;;;;;0.53;100.00;98195.16;5007297;28;20028;-66
2022/01/10 02:38:17;;;;;;;16.98;3.13;;;;;;;0.53;100.00;98205.50;5007093;28;20028;-66
2022/01/10 02:40:44;;;;;;;22.85;3.45;;;;;;;0.38;100.00;98200.13;5006966;28;20342;-66
2022/01/10 02:43:10;;;;;;;9.43;3.85;;;;;;;0.47;100.00;98205.41;5006817;28;20088;-66
2022/01/10 02:45:35;;;;;;;7.50;3.88;;;;;;;0.50;100.00;98206.31;5007097;28;20306;-66
2022/01/10 02:48:01;;;;;;;16.63;3.80;;;;;;;0.49;100.00;98214.06;5006822;28;20326;-66
2022/01/10 02:50:26;;;;;;;17.13;3.95;;;;;;;0.32;100.00;98210.38;5006792;28;20065;-66
2022/01/10 02:52:52;;;;;;;9.73;3.92;;;;;;;0.44;100.00;98213.16;5006718;28;20029;-66
2022/01/10 02:55:18;;;;;;;4.90;2.40;;;;;;;0.53;100.00;98216.72;5006677;28;20026;-66
2022/01/10 02:57:43;;;;;;;14.55;3.78;;;;;;;0.53;100.00;98227.06;5006604;28;20058;-66
2022/01/10 03:00:13;;;;;;;6.95;3.88;;;;;;;0.58;100.00;98224.53;5006584;28;20037;-66
2022/01/10 03:02:41;;;;;;;9.10;3.78;;;;;;;0.57;100.00;98238.34;5006363;28;20054;-66
2022/01/10 03:05:07;;;;;;;10.80;3.75;;;;;;;0.46;100.00;98239.91;5006503;28;20026;-66
2022/01/10 03:07:32;;;;;;;10.85;4.63;;;;;;;0.53;100.00;98241.75;5006415;28;20030;-66
2022/01/10 03:09:59;;;;;;;7.90;3.33;;;;;;;0.62;100.00;98252.19;5006433;28;20033;-66
2022/01/10 03:12:25;;;;;;;7.03;3.10;;;;;;;0.58;100.00;98253.03;5006561;28;20311;-66
2022/01/10 03:14:50;;;;;;;8.15;3.58;;;;;;;0.56;100.00;98252.13;5006289;28;20029;-66
2022/01/10 03:17:15;;;;;;;7.25;3.60;;;;;;;0.55;100.00;98260.75;5006263;28;20247;-66
2022/01/10 03:19:42;;;;;;;10.63;4.15;;;;;;;0.45;100.00;98258.88;5006232;28;20022;-66
2022/01/10 03:22:08;;;;;;;9.70;4.43;;;;;;;0.56;100.00;98259.88;5006096;28;20030;-66
2022/01/10 03:24:34;;;;;;;20.50;2.60;;;;;;;0.52;100.00;98260.69;5006043;28;20027;-66
2022/01/10 03:27:00;;;;;;;8.95;3.45;;;;;;;0.54;100.00;98262.44;5006146;28;20238;-66
2022/01/10 03:29:26;;;;;;;7.80;4.05;;;;;;;0.50;100.00;98265.00;5006020;28;20030;-66
2022/01/10 03:31:51;;;;;;;7.00;3.70;;;;;;;0.57;100.00;98270.25;5006015;28;20249;-66
2022/01/10 03:34:17;;;;;;;5.35;3.22;;;;;;;0.43;100.00;98271.81;5005971;28;20045;-66
2022/01/10 03:36:44;;;;;;;7.47;3.22;;;;;;;0.51;100.00;98279.69;5005938;28;20218;-66
2022/01/10 03:39:11;;;;;;;6.63;3.05;;;;;;;0.59;100.00;98283.22;5005804;28;20036;-66
2022/01/10 03:41:37;;;;;;;8.38;3.72;;;;;;;0.64;100.00;98290.25;5005816;28;20325;-66
2022/01/10 03:44:04;;;;;;;6.63;2.95;;;;;;;0.66;100.00;98285.94;5005669;28;20022;-66
2022/01/10 03:46:32;;;;;;;13.32;2.95;;;;;;;0.44;100.00;98285.63;5005639;28;20097;-66
2022/01/10 03:48:57;;;;;;;11.82;3.85;;;;;;;0.57;100.00;98300.47;5005641;28;20036;-66
2022/01/10 03:51:23;;;;;;;6.28;3.33;;;;;;;0.62;100.00;98298.81;5005602;28;20026;-66
2022/01/10 03:53:48;;;;;;;6.05;2.58;;;;;;;0.64;100.00;98307.47;5004843;28;20029;-66
2022/01/10 03:56:14;;;;;;;5.18;2.67;;;;;;;0.60;100.00;98308.28;5005605;28;20027;-66
2022/01/10 03:58:39;;;;;;;7.50;3.65;;;;;;;0.61;100.00;98312.63;5005490;28;20080;-66
2022/01/10 04:01:08;;;;;;;8.35;3.60;;;;;;;0.60;100.00;98310.88;5005436;28;20033;-66
2022/01/10 04:03:33;;;;;;;7.85;2.45;;;;;;;0.46;100.00;98313.28;5005296;28;20085;-66
2022/01/10 04:05:58;;;;;;;7.32;3.30;;;;;;;0.51;100.00;98310.75;5005596;28;20022;-66
2022/01/10 04:08:24;;;;;;;4.82;2.67;;;;;;;0.51;100.00;98313.34;5005328;28;20349;-66
2022/01/10 04:10:52;;;;;;;4.65;2.40;;;;;;;0.53;100.00;98319.41;5005241;28;20026;-66
2022/01/10 04:13:18;;;;;;;5.95;3.40;;;;;;;0.51;100.00;98315.94;5005204;28;20326;-66
2022/01/10 04:15:43;;;;;;;5.15;2.35;;;;;;;0.58;100.00;98318.63;5005205;28;20053;-66
2022/01/10 04:18:09;;;;;;;4.43;1.75;;;;;;;0.62;100.00;98324.72;5005123;28;20225;-66
2022/01/10 04:20:34;;;;;;;6.40;2.33;;;;;;;0.58;100.00;98325.50;5005107;28;20351;-66
2022/01/10 04:23:00;;;;;;;7.65;2.97;;;;;;;0.57;100.00;98331.56;5005000;28;20114;-66
2022/01/10 04:25:25;;;;;;;4.57;1.95;;;;;;;0.55;100.00;98343.59;5004779;28;20033;-66
2022/01/10 04:27:51;;;;;;;12.15;2.25;;;;;;;0.56;100.00;98340.16;5005006;28;20041;-66
2022/01/10 04:30:17;;;;;;;4.90;2.85;;;;;;;0.57;100.00;98349.69;5005023;28;20261;-66
2022/01/10 04:32:43;;;;;;;4.63;3.08;;;;;;;0.58;100.00;98343.66;5005187;28;20026;-66
2022/01/10 04:35:10;;;;;;;5.35;2.42;;;;;;;0.52;100.00;98353.91;5004788;28;20038;-66
2022/01/10 04:37:36;;;;;;;5.20;2.35;;;;;;;0.55;100.00;98359.13;5004820;28;20034;-66
2022/01/10 04:40:04;;;;;;;5.00;2.78;;;;;;;0.44;100.00;98360.69;5004792;28;20345;-66
2022/01/10 04:42:29;;;;;;;3.47;1.98;;;;;;;0.47;100.00;98361.59;5004736;28;20034;-66
2022/01/10 04:44:55;;;;;;;7.60;2.90;;;;;;;0.53;100.00;98368.63;5004751;28;20053;-66
2022/01/10 04:47:20;;;;;;;6.03;2.53;;;;;;;0.51;100.00;98380.66;5004721;28;20032;-66
2022/01/10 04:52:30;;;;;;;4.20;1.83;;;;;;;0.50;100.00;98386.69;5004941;28;20023;-66
2022/01/10 04:54:56;;;;;;;9.60;2.83;;;;;;;0.43;100.00;98380.53;5003331;28;20337;-66
2022/01/10 04:57:22;;;;;;;5.35;2.33;;;;;;;0.45;100.00;98383.13;5003628;28;20029;-66
2022/01/10 04:59:48;;;;;;;4.38;2.42;;;;;;;0.40;100.00;98389.94;5003563;28;20026;-66
2022/01/10 05:02:14;;;;;;;9.40;2.80;;;;;;;0.31;100.00;98395.00;5003495;28;20042;-66
2022/01/10 05:04:40;;;;;;;5.75;2.15;;;;;;;0.33;100.00;98403.63;5003270;28;20027;-66
2022/01/10 05:07:05;;;;;;;6.55;3.35;;;;;;;0.39;100.00;98408.91;5004044;28;20049;-66
2022/01/10 05:09:30;;;;;;;9.18;3.17;;;;;;;0.41;100.00;98412.41;5004507;28;20076;-66
2022/01/10 05:11:56;;;;;;;6.05;2.72;;;;;;;0.43;100.00;98416.75;5004451;28;20022;-66
2022/01/10 05:14:22;;;;;;;7.65;3.17;;;;;;;0.26;100.00;98427.69;5004344;28;20085;-66
2022/01/10 05:16:48;;;;;;;4.95;2.28;;;;;;;0.31;100.00;98426.06;5004341;28;20060;-66
2022/01/10 05:19:14;;;;;;;5.85;2.42;;;;;;;0.25;100.00;98436.31;5004394;28;20255;-66
2022/01/10 05:21:40;;;;;;;5.57;3.03;;;;;;;0.22;100.00;98433.66;5004308;28;20029;-66
2022/01/10 05:24:05;;;;;;;5.47;1.85;;;;;;;0.30;100.00;98439.81;5004041;28;20034;-66
2022/01/10 05:26:31;;;;;;;6.38;2.70;;;;;;;0.27;100.00;98444.94;5004188;28;20113;-66
2022/01/10 05:28:56;;;;;;;5.90;2.22;;;;;;;0.14;100.00;98445.56;5004287;28;20026;-66
2022/01/10 05:31:22;;;;;;;3.45;1.55;;;;;;;0.11;100.00;98445.50;5004210;28;20026;-66
2022/01/10 05:33:48;;;;;;;10.77;2.05;;;;;;;0.18;100.00;98449.97;5004269;28;20029;-66
2022/01/10 05:36:14;;;;;;;4.82;2.47;;;;;;;0.24;100.00;98455.22;5004200;28;20022;-66
2022/01/10 05:38:40;;;;;;;4.50;2.13;;;;;;;0.03;100.00;98456.59;5004209;28;20033;-66
2022/01/10 05:41:05;;;;;;;14.73;2.45;;;;;;;0.06;100.00;98465.28;5004162;28;20502;-66
2022/01/10 05:43:31;;;;;;;5.30;2.28;;;;;;;0.17;100.00;98466.31;5004055;28;20022;-66
2022/01/10 05:45:57;;;;;;;7.22;2.95;;;;;;;0.22;100.00;98472.47;5004174;28;20045;-66
2022/01/10 05:48:29;;;;;;;7.15;2.90;;;;;;;0.08;100.00;98486.84;5004360;28;20022;-66
2022/01/10 05:50:54;;;;;;;6.38;2.50;;;;;;;0.14;100.00;98474.03;5004282;28;20030;-66
2022/01/10 05:53:21;;;;;;;5.65;2.50;;;;;;;0.19;100.00;98482.75;5004094;28;20023;-66
2022/01/10 05:55:47;;;;;;;14.57;3.45;;;;;;;0.18;100.00;98492.22;5004049;28;20057;-66
2022/01/10 05:58:13;;;;;;;10.73;3.35;;;;;;;0.16;100.00;98490.47;5004019;28;20086;-66
2022/01/10 06:00:39;;;;;;;10.57;2.75;;;;;;;0.04;100.00;98499.72;5004264;28;20049;-66
2022/01/10 06:03:05;;;;;;;6.28;2.70;;;;;;;-0.08;100.00;98502.09;5002778;28;20341;-66
2022/01/10 06:05:31;;;;;;;3.80;1.77;;;;;;;-0.06;100.00;98507.31;5003268;28;20014;-66
2022/01/10 06:08:02;;;;;;;7.00;3.15;;;;;;;-0.20;100.00;98512.19;5004025;28;20022;-66
2022/01/10 06:10:29;;;;;;;5.90;2.72;;;;;;;-0.03;100.00;98518.56;5003836;28;20072;-66
2022/01/10 06:12:55;;;;;;;5.60;2.22;;;;;;;0.09;100.00;98522.25;5004170;28;20022;-66
2022/01/10 06:15:21;;;;;;;9.70;2.03;;;;;;;0.01;100.00;98529.84;5003873;28;20026;-66
2022/01/10 06:17:47;;;;;;;7.90;2.10;;;;;;;0.10;100.00;98534.34;5006687;28;20026;-66
2022/01/10 06:20:13;;;;;;;4.78;2.50;;;;;;;0.14;100.00;98541.31;5007354;28;20030;-66
2022/01/10 06:22:39;;;;;;;4.07;2.10;;;;;;;0.14;100.00;98549.06;5007252;28;20069;-66
2022/01/10 06:25:07;;;;;;;10.60;2.95;;;;;;;0.09;100.00;98548.97;5007211;28;20046;-66
2022/01/10 06:27:32;;;;;;;7.85;2.53;;;;;;;-0.03;100.00;98564.28;5007055;28;20361;-66
2022/01/10 06:29:57;;;;;;;5.30;1.92;;;;;;;-0.14;100.00;98560.56;5007234;28;20029;-66
2022/01/10 06:32:23;;;;;;;6.88;2.95;;;;;;;-0.07;100.00;98570.19;5007164;28;20022;-66
2022/01/10 06:34:49;;;;;;;8.48;3.15;;;;;;;-0.07;100.00;98576.25;5007097;28;20022;-66
2022/01/10 06:37:14;;;;;;;11.63;3.47;;;;;;;-0.09;100.00;98572.75;5007031;28;20249;-66
2022/01/10 06:39:40;;;;;;;7.40;2.20;;;;;;;-0.11;100.00;98579.63;5006983;28;20371;-66
2022/01/10 06:42:05;;;;;;;6.78;2.70;;;;;;;-0.27;100.00;98577.56;5006863;28;20089;-66
2022/01/10 06:44:31;;;;;;;4.78;2.55;;;;;;;-0.17;100.00;98587.25;5006919;28;20045;-66
2022/01/10 06:46:57;;;;;;;7.18;2.92;;;;;;;-0.14;100.00;98587.31;5006820;28;20030;-66
2022/01/10 06:49:22;;;;;;;6.90;2.38;;;;;;;-0.09;100.00;98590.88;5006766;28;20022;-66
2022/01/10 06:51:48;;;;;;;6.70;3.30;;;;;;;-0.20;100.00;98602.69;5006795;28;20030;-66
2022/01/10 06:54:14;;;;;;;7.63;3.25;;;;;;;-0.13;100.00;98607.16;5006713;28;20026;-66
2022/01/10 06:56:39;;;;;;;5.13;2.53;;;;;;;-0.05;100.00;98613.38;5006675;28;20341;-66
2022/01/10 06:59:05;;;;;;;3.92;1.85;;;;;;;-0.05;100.00;98618.56;5006620;28;20041;-66
2022/01/10 07:01:31;;;;;;;6.57;3.13;;;;;;;-0.05;100.00;98628.91;5006632;28;20022;-66
2022/01/10 07:03:57;;;;;;;5.53;2.75;;;;;;;0.00;100.00;98632.47;5006465;28;20022;-66
2022/01/10 07:06:23;;;;;;;5.72;3.03;;;;;;;0.03;100.00;98642.88;5006753;28;20309;-66
2022/01/10 07:08:48;;;;;;;9.68;3.25;;;;;;;0.01;100.00;98649.72;5006465;28;20026;-66
2022/01/10 07:11:14;;;;;;;7.10;2.90;;;;;;;-0.03;100.00;98653.09;5006660;28;20037;-66
2022/01/10 07:13:39;;;;;;;5.68;3.15;;;;;;;-0.03;100.00;98655.66;5006392;28;20018;-66
2022/01/10 07:16:04;;;;;;;6.68;3.10;;;;;;;-0.16;100.00;98666.59;5006337;28;20022;-66
2022/01/10 07:18:30;;;;;;;8.95;4.47;;;;;;;-0.13;100.00;98671.81;5006290;28;20065;-66
2022/01/10 07:20:55;;;;;;;5.63;3.03;;;;;;;-0.10;100.00;98681.34;5006268;28;20022;-66
2022/01/10 07:23:22;;;;;;;7.72;3.17;;;;;;;-0.16;100.00;98682.09;5006110;28;20026;-66
2022/01/10 07:25:48;;;;;;;7.90;3.17;;;;;;;-0.10;100.00;98686.53;5005930;28;20333;-66
2022/01/10 07:28:13;;;;;;;7.68;3.25;;;;;;;-0.08;100.00;98701.28;5005002;28;20028;-66
2022/01/10 07:30:39;;;;;;;12.00;4.18;;;;;;;-0.10;100.00;98705.53;5006064;28;20018;-66
2022/01/10 07:33:04;;;;;;;6.80;3.13;;;;;;;-0.13;100.00;98712.31;5006016;28;20025;-66
2022/01/10 07:35:30;;;;;;;7.80;3.15;;;;;;;-0.33;100.00;98727.38;5005970;28;20042;-66
2022/01/10 07:37:55;;;;;;;8.27;2.72;;;;;;;-0.18;100.00;98724.28;5005863;28;20049;-66
2022/01/10 07:40:20;;;;;;;5.82;2.35;;;;;;;-0.18;100.00;98729.47;5005910;28;20027;-66
2022/01/10 07:42:46;;;;;;;12.13;3.33;;;;;;;-0.10;100.00;98733.09;5005760;28;20022;-66
2022/01/10 07:45:11;;;;;;;9.77;2.75;;;;;;;-0.17;100.00;98742.44;5004653;28;20060;-66
2022/01/10 07:47:38;;;;;;;9.07;3.08;;;;;;;-0.22;100.00;98736.25;5005744;28;20133;-66
2022/01/10 07:50:05;;;;;;;9.25;3.00;;;;;;;-0.14;100.00;98742.50;5006852;28;20209;-66
2022/01/10 07:52:31;;;;;;;5.05;2.75;;;;;;;-0.04;100.00;98747.06;5004909;28;20034;-66
2022/01/10 07:54:56;;;;;;;8.52;3.75;;;;;;;-0.02;100.00;98755.75;5004930;28;20049;-66
2022/01/10 07:57:22;;;;;;;9.75;3.33;;;;;;;-0.03;100.00;98756.56;5004605;28;20077;-66
2022/01/10 07:59:47;;;;;;;7.63;4.07;;;;;;;0.01;100.00;98753.19;5009899;28;20265;-66
2022/01/10 08:02:13;;;;;;;4.68;2.35;;;;;;;-0.05;99.97;98758.25;5024279;28;20217;-66
2022/01/10 08:04:39;;;;;;;8.07;3.72;;;;;;;-0.07;100.00;98765.09;5032149;28;20036;-66
2022/01/10 08:07:04;;;;;;;9.52;4.10;;;;;;;-0.09;100.00;98769.34;5043896;28;20093;-66
2022/01/10 08:09:30;;;;;;;3.72;2.40;;;;;;;-0.18;100.00;98776.88;5030489;28;20086;-66
2022/01/10 08:11:59;;;;;;;7.95;3.63;;;;;;;-0.16;100.00;98785.56;5020490;28;20030;-66
2022/01/10 08:14:29;;;;;;;6.03;3.25;;;;;;;-0.13;100.00;98790.81;5032466;28;20021;-66
2022/01/10 08:16:55;;;;;;;6.50;3.30;;;;;;;-0.06;100.00;98792.69;5031580;28;20030;-66
2022/01/10 08:19:21;;;;;;;7.45;3.70;;;;;;;0.00;100.00;98803.22;5023894;28;20030;-66
2022/01/10 08:21:46;;;;;;;8.90;3.42;;;;;;;0.03;100.00;98803.28;5034829;28;20334;-66
2022/01/10 08:24:12;;;;;;;7.85;3.50;;;;;;;0.09;100.00;98801.69;5011755;28;20108;-65
2022/01/10 08:26:37;;;;;;;7.38;3.83;;;;;;;0.08;100.00;98810.28;5003922;28;20050;-65
2022/01/10 08:29:03;;;;;;;6.03;2.70;;;;;;;0.06;100.00;98809.38;5019213;28;20036;-65
2022/01/10 08:31:28;;;;;;;5.32;3.10;;;;;;;0.11;100.00;98825.88;5013623;28;20022;-66
2022/01/10 08:33:55;;;;;;;9.88;3.97;;;;;;;0.12;100.00;98827.66;5014062;28;20046;-66
2022/01/10 08:36:20;;;;;;;10.30;3.50;;;;;;;0.09;100.00;98822.41;5012403;28;20072;-66
2022/01/10 08:38:46;;;;;;;13.10;2.45;;;;;;;0.01;100.00;98825.63;5013831;28;20079;-66
2022/01/10 08:41:11;;;;;;;7.15;3.63;;;;;;;0.06;100.00;98830.09;5013331;28;20390;-66
2022/01/10 08:43:36;;;;;;;5.18;2.55;;;;;;;0.08;100.00;98836.16;5011926;28;20021;-66
2022/01/10 08:46:03;;;;;;;10.10;3.78;;;;;;;-0.04;100.00;98837.59;5014188;28;20024;-66
2022/01/10 08:48:28;;;;;;;8.98;4.32;;;;;;;0.08;100.00;98836.16;5003771;28;20034;-66
2022/01/10 08:50:54;;;;;;;12.45;3.83;;;;;;;0.10;100.00;98837.06;5003686;28;20210;-66
2022/01/10 08:53:19;;;;;;;7.18;3.10;;;;;;;0.14;100.00;98850.13;5003974;28;20030;-66
2022/01/10 08:55:46;;;;;;;7.80;4.10;;;;;;;0.14;100.00;98857.00;5003286;28;20322;-66
2022/01/10 08:58:12;;;;;;;13.07;2.83;;;;;;;0.13;100.00;98850.97;5003619;28;20037;-66
2022/01/10 09:00:37;;;;;;;7.80;3.42;;;;;;;0.15;100.00;98851.00;5005471;28;20022;-66
2022/01/10 09:03:03;;;;;;;6.03;3.45;;;;;;;0.14;99.26;98857.88;5020296;28;20317;-66
2022/01/10 09:05:29;;;;;;;4.88;2.65;;;;;;;0.15;99.01;98856.19;5018474;28;20068;-66
2022/01/10 09:07:58;;;;;;;5.43;2.58;;;;;;;0.15;100.00;98863.94;5004309;28;20050;-66
2022/01/10 09:10:27;;;;;;;11.57;3.33;;;;;;;0.07;99.86;98873.22;5004615;28;20034;-66
2022/01/10 09:12:53;;;;;;;6.35;3.20;;;;;;;0.03;99.86;98874.00;5004020;28;20026;-66
2022/01/10 09:15:19;;;;;;;6.05;2.90;;;;;;;-0.24;100.00;98869.84;5004368;28;20149;-66
2022/01/10 09:17:44;;;;;;;7.68;3.45;;;;;;;-0.03;100.00;98880.75;5004632;28;20018;-66
2022/01/10 09:20:10;;;;;;;5.35;2.63;;;;;;;0.19;100.00;98889.06;5004298;28;20037;-66
2022/01/10 09:22:35;;;;;;;7.15;3.63;;;;;;;0.28;100.00;98891.88;5004274;28;20026;-66
2022/01/10 09:25:01;;;;;;;6.18;3.20;;;;;;;0.37;99.80;98898.16;5004267;28;20026;-66
2022/01/10 09:27:26;;;;;;;5.43;2.55;;;;;;;0.36;98.68;98900.69;5004165;28;20050;-66
2022/01/10 09:29:52;;;;;;;6.28;3.10;;;;;;;-0.10;98.91;98899.53;5004365;28;20033;-66
2022/01/10 09:32:17;;;;;;;4.90;2.53;;;;;;;0.15;99.38;98897.59;5004250;28;20420;-66
2022/01/10 09:34:43;;;;;;;5.00;2.53;;;;;;;0.03;99.58;98906.78;5004255;28;20380;-66
2022/01/10 09:37:08;;;;;;;5.80;2.78;;;;;;;0.10;99.94;98906.94;5004231;28;20022;-66
2022/01/10 09:39:34;;;;;;;9.20;3.35;;;;;;;0.29;99.21;98914.34;5004263;28;20026;-66
2022/01/10 09:42:01;;;;;;;5.43;2.75;;;;;;;0.29;99.47;98910.03;5004242;28;20130;-66
2022/01/10 09:44:26;;;;;;;5.18;2.90;;;;;;;0.31;99.29;98917.84;5004083;28;20233;-66
2022/01/10 09:46:52;;;;;;;5.07;2.78;;;;;;;0.39;98.96;98926.66;5004153;28;20093;-66
2022/01/10 09:49:18;;;;;;;5.55;2.88;;;;;;;0.48;99.31;98926.91;5004359;28;20022;-66
2022/01/10 09:51:44;;;;;;;13.98;3.80;;;;;;;0.15;98.92;98926.91;5005306;28;20022;-66
2022/01/10 09:54:10;;;;;;;7.75;3.58;;;;;;;0.26;99.83;98929.78;5008077;28;20018;-66
2022/01/10 09:56:35;;;;;;;7.57;4.00;;;;;;;0.24;99.66;98937.50;5007797;28;20272;-66
2022/01/10 09:59:01;;;;;;;8.70;3.38;;;;;;;0.57;99.46;98943.53;5007752;28;20058;-66
2022/01/10 10:01:30;;;;;;;9.18;3.45;;;;;;;0.77;98.91;98941.41;5007813;28;20037;-66
2022/01/10 10:03:58;;;;;;;5.90;2.88;;;;;;;0.93;98.23;98948.72;5007626;28;20029;-66
2022/01/10 10:06:26;;;;;;;9.23;2.95;;;;;;;0.77;97.32;98951.78;5006047;28;20033;-66
2022/01/10 10:08:51;;;;;;;11.00;3.35;;;;;;;0.88;96.90;98955.53;5007334;28;20042;-66
2022/01/10 10:11:17;;;;;;;5.90;3.25;;;;;;;1.00;97.11;98960.97;5007527;28;20030;-66
2022/01/10 10:13:44;;;;;;;7.10;3.38;;;;;;;1.24;96.83;98970.16;5007491;28;20314;-66
2022/01/10 10:16:13;;;;;;;7.50;4.15;;;;;;;1.28;95.86;98964.22;5007409;28;20334;-66
2022/01/10 10:18:39;;;;;;;10.38;3.35;;;;;;;1.29;96.17;98970.25;5007432;28;20033;-66
2022/01/10 10:21:10;;;;;;;8.18;3.92;;;;;;;1.32;95.70;98970.34;5007314;28;20030;-66
2022/01/10 10:23:36;;;;;;;6.10;3.13;;;;;;;1.43;95.79;98963.69;5007484;28;20215;-66
2022/01/10 10:26:03;;;;;;;7.80;3.13;;;;;;;1.51;96.16;98972.50;5007163;28;20049;-66
2022/01/10 10:28:28;;;;;;;7.50;3.95;;;;;;;1.53;96.74;98960.44;5007231;28;20030;-66
2022/01/10 10:30:58;;;;;;;5.53;2.95;;;;;;;1.61;96.73;98964.06;5007200;28;20022;-66
2022/01/10 10:33:25;;;;;;;7.75;3.67;;;;;;;1.68;96.77;98955.59;5013617;28;20011;-66
2022/01/10 10:36:10;;;;;;;6.25;3.17;;;;;;;1.73;96.95;98964.31;5028163;28;20052;-66
2022/01/10 10:38:36;;;;;;;7.28;3.08;;;;;;;1.83;97.00;98974.03;5027190;28;20022;-66
2022/01/10 10:41:04;;;;;;;9.73;3.00;;;;;;;1.81;96.64;98974.00;5035236;28;20021;-66
2022/01/10 10:43:41;;;;;;;6.65;3.75;;;;;;;1.70;94.74;98982.41;5025363;28;20026;-66
2022/01/10 10:46:16;;;;;;;8.30;3.53;;;;;;;1.81;95.34;98978.34;5029534;28;20021;-66
2022/01/10 10:48:45;;;;;;;18.33;4.40;;;;;;;1.89;95.66;98979.34;5029022;28;20033;-66
2022/01/10 10:51:11;;;;;;;10.98;3.78;;;;;;;1.87;95.59;98983.66;5034289;28;20021;-66
2022/01/10 10:53:37;;;;;;;10.20;3.70;;;;;;;1.91;96.70;98982.84;5035112;28;20305;-66
2022/01/10 10:56:05;;;;;;;10.82;3.47;;;;;;;2.04;97.07;98993.53;5039305;28;20037;-66
2022/01/10 10:58:31;;;;;;;7.90;3.38;;;;;;;2.04;97.46;99000.41;5029553;28;20068;-66
2022/01/10 11:00:59;;;;;;;5.15;2.97;;;;;;;1.89;97.09;98997.50;5027266;28;20022;-66
2022/01/10 11:03:25;;;;;;;8.43;3.22;;;;;;;2.00;97.44;99009.00;5029418;28;20030;-66
2022/01/10 11:05:54;;;;;;;8.75;3.50;;;;;;;2.00;96.66;99017.66;5019260;28;20237;-66
2022/01/10 11:08:21;;;;;;;5.18;2.95;;;;;;;2.07;95.84;99010.88;5006479;28;20034;-66
2022/01/10 11:10:46;;;;;;;6.10;3.15;;;;;;;2.11;96.04;99025.66;5011688;28;20052;-66
2022/01/10 11:13:13;;;;;;;12.77;3.95;;;;;;;2.03;95.96;99028.09;5015718;28;20320;-66
2022/01/10 11:15:39;;;;;;;9.27;4.07;;;;;;;2.05;97.20;99035.91;5029841;28;20248;-66
2022/01/10 11:18:07;;;;;;;6.28;3.40;;;;;;;2.20;97.67;99033.63;5045750;28;20025;-66
2022/01/10 11:20:47;;;;;;;12.40;4.53;;;;;;;2.19;96.77;99032.75;5045695;28;20021;-66
2022/01/10 11:23:13;;;;;;;15.68;4.90;;;;;;;2.10;97.24;99042.09;5045887;28;20221;-66
2022/01/10 11:25:42;;;;;;;15.02;6.45;;;;;;;2.19;97.44;99044.88;5045391;28;20048;-66
2022/01/10 11:28:18;;;;;;;14.07;5.30;;;;;;;2.20;97.49;99047.50;5045834;28;20029;-66
2022/01/10 11:30:45;;;;;;;14.95;4.72;;;;;;;2.28;97.39;99050.25;5045592;28;20021;-66
2022/01/10 11:33:16;;;;;;;14.50;5.15;;;;;;;2.26;97.44;99046.75;5045464;28;20066;-66
2022/01/10 11:35:43;;;;;;;16.10;6.13;;;;;;;2.25;97.85;99052.78;5045475;28;20052;-66
2022/01/10 11:38:21;;;;;;;13.35;5.00;;;;;;;2.29;97.44;99059.78;5045382;28;20075;-66
2022/01/10 11:40:49;;;;;;;13.00;5.22;;;;;;;2.07;96.87;99055.88;5045287;28;20026;-66
2022/01/10 11:43:40;;;;;;;18.35;4.68;;;;;;;2.09;97.89;99048.13;5045157;28;20028;-66